Time;durP1;ratioP1;P1;durP2;ratioP2;P2;SDS_P1;SDS_P2;PMS_P1;PMS_P2;Temp;Humidity;BMP_temperature;BMP_pressure;BME280_temperature;BME280_humidity;BME280_pressure;Samples;Min_cycle;Max_cycle;Signal;HPM_P1;HPM_P2
2023/05/28 00:01:59;;;;;;;6.25;3.35;;;;;;;;;;5037245;28;20403;-77
2023/05/28 00:04:24;;;;;;;7.40;3.15;;;;;;;;;;5018187;28;20532;-76
2023/05/28 00:06:55;;;;;;;8.73;3.75;;;;;;;;;;5022878;28;20098;-76
2023/05/28 00:09:20;;;;;;;6.60;3.35;;;;;;;;;;5026051;28;20037;-77
2023/05/28 00:11:46;;;;;;;6.22;2.92;;;;;;;;;;4999978;28;20437;-77
2023/05/28 00:14:11;;;;;;;3.95;2.78;;;;;;;;;;5027862;28;20037;-77
2023/05/28 00:16:37;;;;;;;6.20;2.65;;;;;;;;;;5017301;28;20476;-76
2023/05/28 00:19:03;;;;;;;6.10;3.17;;;;;;;;;;5044068;28;20042;-75
2023/05/28 00:21:28;;;;;;;4.78;2.67;;;;;;;;;;5023318;28;20481;-76
2023/05/28 00:23:54;;;;;;;5.57;2.80;;;;;;;;;;5034097;28;20118;-75
2023/05/28 00:26:19;;;;;;;4.25;2.47;;;;;;;;;;5021043;28;20049;-77
2023/05/28 00:28:44;;;;;;;5.03;2.42;;;;;;;;;;5015051;28;20099;-77
2023/05/28 00:31:11;;;;;;;5.70;2.65;;;;;;;;;;5018988;28;20131;-77
2023/05/28 00:33:36;;;;;;;4.40;2.83;;;;;;;;;;5037242;28;20036;-78
2023/05/28 00:36:01;;;;;;;6.85;2.38;;;;;;;;;;5028875;28;20047;-77
2023/05/28 00:38:27;;;;;;;6.25;3.00;;;;;;;;;;5031387;28;20103;-78
2023/05/28 00:40:54;;;;;;;7.72;3.45;;;;;;;;;;5029492;28;20036;-80
2023/05/28 00:43:20;;;;;;;6.95;2.83;;;;;;;;;;5033358;28;20041;-80
2023/05/28 00:45:48;;;;;;;5.25;2.80;;;;;;;;;;5024705;28;20296;-79
2023/05/28 00:48:13;;;;;;;6.57;2.92;;;;;;;;;;5026378;28;20037;-79
2023/05/28 00:50:39;;;;;;;5.95;3.40;;;;;;;;;;5037058;28;20040;-77
2023/05/28 00:53:06;;;;;;;6.10;3.58;;;;;;;;;;5025124;28;20495;-80
2023/05/28 00:55:31;;;;;;;6.65;2.92;;;;;;;;;;5026047;28;20040;-79
2023/05/28 00:58:05;;;;;;;4.22;2.65;;;;;;;;;;5000025;28;20036;-80
2023/05/28 01:00:31;;;;;;;3.42;2.35;;;;;;;;;;5002440;28;20116;-80
2023/05/28 01:02:56;;;;;;;6.28;3.00;;;;;;;;;;5044343;28;20029;-78
2023/05/28 01:05:22;;;;;;;2.80;1.70;;;;;;;;;;5033045;28;20037;-79
2023/05/28 01:07:47;;;;;;;6.28;2.70;;;;;;;;;;5022098;28;20588;-77
2023/05/28 01:10:13;;;;;;;5.50;2.25;;;;;;;;;;5034057;28;20068;-80
2023/05/28 01:12:42;;;;;;;3.88;2.30;;;;;;;;;;5047205;28;20036;-78
2023/05/28 01:15:08;;;;;;;4.28;2.20;;;;;;;;;;5045674;28;20048;-77
2023/05/28 01:17:35;;;;;;;4.95;2.13;;;;;;;;;;5033902;28;20056;-77
2023/05/28 01:20:10;;;;;;;4.65;2.40;;;;;;;;;;5032471;28;20509;-77
2023/05/28 01:22:45;;;;;;;5.10;2.88;;;;;;;;;;5041621;28;20040;-77
2023/05/28 01:25:12;;;;;;;4.03;2.20;;;;;;;;;;5031222;28;20037;-78
2023/05/28 01:27:40;;;;;;;6.47;2.75;;;;;;;;;;5045509;28;20097;-75
2023/05/28 01:30:09;;;;;;;3.17;2.35;;;;;;;;;;5032103;28;20573;-76
2023/05/28 01:32:36;;;;;;;4.35;2.20;;;;;;;;;;5000829;28;20052;-76
2023/05/28 01:35:02;;;;;;;5.38;2.50;;;;;;;;;;5038947;28;20115;-78
2023/05/28 01:37:29;;;;;;;5.32;2.42;;;;;;;;;;5026523;28;20036;-77
2023/05/28 01:39:56;;;;;;;5.43;2.67;;;;;;;;;;5034567;28;20040;-76
2023/05/28 01:42:22;;;;;;;5.18;2.90;;;;;;;;;;5022288;28;20033;-78
2023/05/28 01:44:50;;;;;;;4.03;2.72;;;;;;;;;;5028224;28;20048;-77
2023/05/28 01:47:16;;;;;;;5.22;2.92;;;;;;;;;;5008190;28;20110;-77
2023/05/28 01:49:41;;;;;;;5.88;2.85;;;;;;;;;;5033767;28;20502;-78
2023/05/28 01:52:07;;;;;;;3.80;2.58;;;;;;;;;;5023602;28;20108;-78
2023/05/28 01:54:33;;;;;;;6.47;2.63;;;;;;;;;;5014542;28;20049;-78
2023/05/28 01:56:58;;;;;;;6.68;2.78;;;;;;;;;;5033224;28;20041;-78
2023/05/28 01:59:24;;;;;;;4.25;2.75;;;;;;;;;;5031348;28;20136;-77
2023/05/28 02:01:50;;;;;;;4.28;2.83;;;;;;;;;;5041880;28;20043;-79
2023/05/28 02:04:16;;;;;;;3.17;2.40;;;;;;;;;;5043264;28;20064;-77
2023/05/28 02:06:45;;;;;;;7.85;3.03;;;;;;;;;;5029658;28;20043;-77
2023/05/28 02:09:11;;;;;;;6.25;3.00;;;;;;;;;;5027479;28;20040;-79
2023/05/28 02:11:36;;;;;;;5.15;2.58;;;;;;;;;;5033050;28;20498;-77
2023/05/28 02:14:03;;;;;;;4.63;2.50;;;;;;;;;;5019354;28;20041;-78
2023/05/28 02:16:29;;;;;;;5.32;2.70;;;;;;;;;;5035740;28;20060;-77
2023/05/28 02:18:55;;;;;;;3.70;2.38;;;;;;;;;;5048008;28;20119;-78
2023/05/28 02:21:20;;;;;;;5.32;2.25;;;;;;;;;;5024940;28;20033;-77
2023/05/28 02:23:49;;;;;;;3.28;2.13;;;;;;;;;;5023153;28;20041;-78
2023/05/28 02:26:15;;;;;;;3.47;2.20;;;;;;;;;;5028684;28;20037;-79
2023/05/28 02:28:43;;;;;;;2.70;1.52;;;;;;;;;;5014320;28;20103;-79
2023/05/28 02:31:11;;;;;;;3.15;2.00;;;;;;;;;;5032098;28;20040;-80
2023/05/28 02:33:41;;;;;;;2.03;1.60;;;;;;;;;;5026257;28;20041;-79
2023/05/28 02:36:08;;;;;;;2.95;1.70;;;;;;;;;;5040767;28;20033;-80
2023/05/28 02:38:33;;;;;;;4.07;1.90;;;;;;;;;;5041326;28;20120;-78
2023/05/28 02:40:59;;;;;;;2.90;1.88;;;;;;;;;;5031193;28;20112;-78
2023/05/28 02:43:24;;;;;;;3.33;2.10;;;;;;;;;;5038892;28;21276;-79
2023/05/28 02:45:50;;;;;;;5.18;2.58;;;;;;;;;;5031885;28;20041;-78
2023/05/28 02:48:18;;;;;;;3.00;2.40;;;;;;;;;;5027822;28;20073;-78
2023/05/28 02:50:43;;;;;;;4.97;2.40;;;;;;;;;;5037613;28;20044;-77
2023/05/28 02:53:08;;;;;;;3.10;2.60;;;;;;;;;;5045833;28;20380;-78
2023/05/28 02:55:34;;;;;;;5.93;2.63;;;;;;;;;;5035196;28;20032;-77
2023/05/28 02:57:59;;;;;;;5.10;2.65;;;;;;;;;;5044658;28;20047;-76
2023/05/28 03:00:25;;;;;;;5.13;2.58;;;;;;;;;;5025808;28;20041;-79
2023/05/28 03:02:50;;;;;;;1.90;1.50;;;;;;;;;;5033766;28;20385;-77
2023/05/28 03:05:16;;;;;;;2.75;1.60;;;;;;;;;;5036240;28;20581;-78
2023/05/28 03:07:41;;;;;;;3.55;1.98;;;;;;;;;;5038277;28;20056;-78
2023/05/28 03:10:07;;;;;;;3.70;2.00;;;;;;;;;;5034251;28;20321;-76
2023/05/28 03:12:32;;;;;;;3.72;2.47;;;;;;;;;;5026671;28;20017;-78
2023/05/28 03:14:58;;;;;;;7.22;3.20;;;;;;;;;;5037066;28;20041;-79
2023/05/28 03:17:23;;;;;;;20.70;4.13;;;;;;;;;;5036660;28;20040;-78
2023/05/28 03:19:48;;;;;;;13.93;4.15;;;;;;;;;;5032319;28;20140;-77
2023/05/28 03:22:14;;;;;;;6.65;2.80;;;;;;;;;;5013030;28;20128;-77
2023/05/28 03:24:39;;;;;;;3.00;1.83;;;;;;;;;;5026390;28;20048;-79
2023/05/28 03:27:05;;;;;;;2.90;1.55;;;;;;;;;;5026418;28;20060;-77
2023/05/28 03:29:31;;;;;;;3.13;1.55;;;;;;;;;;5014772;28;20037;-77
2023/05/28 03:31:56;;;;;;;3.53;2.05;;;;;;;;;;5039354;28;20048;-79
2023/05/28 03:34:23;;;;;;;3.58;2.92;;;;;;;;;;5045004;28;20067;-78
2023/05/28 03:36:49;;;;;;;4.88;2.22;;;;;;;;;;5023598;28;20052;-78
2023/05/28 03:39:15;;;;;;;2.90;1.70;;;;;;;;;;5023404;28;20041;-78
2023/05/28 03:41:40;;;;;;;5.93;2.10;;;;;;;;;;5045797;28;20031;-79
2023/05/28 03:44:06;;;;;;;4.38;2.22;;;;;;;;;;5029218;28;20076;-79
2023/05/28 03:46:32;;;;;;;3.53;1.88;;;;;;;;;;5026695;28;20052;-77
2023/05/28 03:48:57;;;;;;;4.35;2.13;;;;;;;;;;5038120;28;20037;-78
2023/05/28 03:51:23;;;;;;;4.70;2.30;;;;;;;;;;5030344;28;20045;-78
2023/05/28 03:53:49;;;;;;;5.50;2.40;;;;;;;;;;5041430;28;20045;-78
2023/05/28 03:56:16;;;;;;;4.70;2.28;;;;;;;;;;5029184;28;20033;-78
2023/05/28 03:58:41;;;;;;;5.70;2.60;;;;;;;;;;5023517;28;20032;-80
2023/05/28 04:01:07;;;;;;;5.57;2.50;;;;;;;;;;5034444;28;20417;-80
2023/05/28 04:03:33;;;;;;;5.63;2.40;;;;;;;;;;5034871;28;20033;-78
2023/05/28 04:05:59;;;;;;;4.20;2.20;;;;;;;;;;5030436;28;20044;-78
2023/05/28 04:08:24;;;;;;;3.47;2.55;;;;;;;;;;5042824;28;20041;-79
2023/05/28 04:10:50;;;;;;;7.18;3.10;;;;;;;;;;5038608;28;20743;-78
2023/05/28 04:13:15;;;;;;;4.57;2.75;;;;;;;;;;5035993;28;20106;-78
2023/05/28 04:15:41;;;;;;;7.25;3.25;;;;;;;;;;5038901;28;20068;-78
2023/05/28 04:18:06;;;;;;;5.13;2.65;;;;;;;;;;5023614;28;20038;-78
2023/05/28 04:20:32;;;;;;;5.40;2.60;;;;;;;;;;5002050;28;20038;-78
2023/05/28 04:22:57;;;;;;;5.65;2.45;;;;;;;;;;5020941;28;20049;-76
2023/05/28 04:25:24;;;;;;;6.40;2.42;;;;;;;;;;5012573;28;20330;-78
2023/05/28 04:27:49;;;;;;;4.55;2.90;;;;;;;;;;5024941;28;20056;-77
2023/05/28 04:30:15;;;;;;;5.55;2.40;;;;;;;;;;5040940;28;20044;-76
2023/05/28 04:32:40;;;;;;;4.93;2.70;;;;;;;;;;5032935;28;20087;-78
2023/05/28 04:35:08;;;;;;;6.70;2.80;;;;;;;;;;5044069;28;20033;-77
2023/05/28 04:37:36;;;;;;;5.95;2.70;;;;;;;;;;5041582;28;20029;-77
2023/05/28 04:40:03;;;;;;;7.60;3.22;;;;;;;;;;5023455;28;20561;-78
2023/05/28 04:42:28;;;;;;;5.47;2.97;;;;;;;;;;5043780;28;20040;-78
2023/05/28 04:44:54;;;;;;;4.20;2.50;;;;;;;;;;5033466;28;20048;-78
2023/05/28 04:47:19;;;;;;;6.47;2.85;;;;;;;;;;5021337;28;20045;-76
2023/05/28 04:49:44;;;;;;;4.45;2.50;;;;;;;;;;5029817;28;20048;-77
2023/05/28 04:52:10;;;;;;;5.10;2.50;;;;;;;;;;5021603;28;20032;-78
2023/05/28 04:54:35;;;;;;;4.43;2.28;;;;;;;;;;5027115;28;20170;-79
2023/05/28 04:57:02;;;;;;;5.22;2.53;;;;;;;;;;5051197;28;20074;-78
2023/05/28 04:59:27;;;;;;;4.13;2.38;;;;;;;;;;5024180;28;20535;-79
2023/05/28 05:01:53;;;;;;;3.92;2.45;;;;;;;;;;5017857;28;20107;-77
2023/05/28 05:04:18;;;;;;;3.58;2.58;;;;;;;;;;5028721;28;20169;-81
2023/05/28 05:06:43;;;;;;;4.50;3.00;;;;;;;;;;5038410;28;20145;-81
2023/05/28 05:09:09;;;;;;;3.97;2.70;;;;;;;;;;5026800;28;21467;-78
2023/05/28 05:11:35;;;;;;;3.55;2.53;;;;;;;;;;5040172;28;20116;-80
2023/05/28 05:14:00;;;;;;;5.38;2.92;;;;;;;;;;5037429;28;20038;-80
2023/05/28 05:16:26;;;;;;;4.80;2.72;;;;;;;;;;5026343;28;20038;-78
2023/05/28 05:18:52;;;;;;;7.43;2.58;;;;;;;;;;5029155;28;20094;-82
2023/05/28 05:21:17;;;;;;;5.60;2.80;;;;;;;;;;5006963;28;20128;-79
2023/05/28 05:23:43;;;;;;;5.28;2.50;;;;;;;;;;5038127;28;20652;-80
2023/05/28 05:26:09;;;;;;;6.88;2.65;;;;;;;;;;5046473;28;20068;-79
2023/05/28 05:28:35;;;;;;;4.70;2.70;;;;;;;;;;5010443;28;20144;-78
2023/05/28 05:31:01;;;;;;;3.30;2.65;;;;;;;;;;5021720;28;20045;-77
2023/05/28 05:33:26;;;;;;;5.72;2.40;;;;;;;;;;5037274;28;20079;-77
2023/05/28 05:35:52;;;;;;;5.50;3.17;;;;;;;;;;5029993;28;20033;-79
2023/05/28 05:38:18;;;;;;;4.43;2.40;;;;;;;;;;5038972;28;20034;-79
2023/05/28 05:40:43;;;;;;;6.50;3.13;;;;;;;;;;5018782;28;20144;-79
2023/05/28 05:43:09;;;;;;;3.47;2.60;;;;;;;;;;5007000;28;20040;-78
2023/05/28 05:45:34;;;;;;;6.78;2.50;;;;;;;;;;5031716;28;20041;-77
2023/05/28 05:47:59;;;;;;;7.60;2.80;;;;;;;;;;5039523;28;20045;-80
2023/05/28 05:50:25;;;;;;;4.05;2.58;;;;;;;;;;5023205;28;20063;-79
2023/05/28 05:52:50;;;;;;;6.50;3.00;;;;;;;;;;5022650;28;20037;-78
2023/05/28 05:55:16;;;;;;;7.05;3.05;;;;;;;;;;5037456;28;20036;-78
2023/05/28 05:57:41;;;;;;;5.95;3.20;;;;;;;;;;5024587;28;20079;-79
2023/05/28 06:00:08;;;;;;;4.57;3.00;;;;;;;;;;5021280;28;20038;-77
2023/05/28 06:02:35;;;;;;;11.68;6.53;;;;;;;;;;5021814;28;20123;-80
2023/05/28 06:05:02;;;;;;;13.18;7.78;;;;;;;;;;5021811;28;20048;-77
2023/05/28 06:07:28;;;;;;;6.93;4.47;;;;;;;;;;5032070;28;20049;-78
2023/05/28 06:09:53;;;;;;;7.45;3.67;;;;;;;;;;5032628;28;20186;-79
2023/05/28 06:12:19;;;;;;;7.82;3.10;;;;;;;;;;5020527;28;20059;-77
2023/05/28 06:14:44;;;;;;;5.90;2.85;;;;;;;;;;5036326;28;20057;-79
2023/05/28 06:17:10;;;;;;;5.28;2.83;;;;;;;;;;5011118;28;20092;-78
2023/05/28 06:19:35;;;;;;;5.10;2.90;;;;;;;;;;5012758;28;20054;-77
2023/05/28 06:22:00;;;;;;;7.05;2.63;;;;;;;;;;5019930;28;20049;-79
2023/05/28 06:24:26;;;;;;;5.32;2.53;;;;;;;;;;5011493;28;20036;-77
2023/05/28 06:26:51;;;;;;;6.82;2.60;;;;;;;;;;5019889;28;20053;-77
2023/05/28 06:29:17;;;;;;;6.35;2.45;;;;;;;;;;5021299;28;20041;-79
2023/05/28 06:31:42;;;;;;;7.47;2.55;;;;;;;;;;5016347;28;20036;-79
2023/05/28 06:34:08;;;;;;;5.75;2.60;;;;;;;;;;5026775;28;20406;-79
2023/05/28 06:36:35;;;;;;;5.28;2.70;;;;;;;;;;5025020;28;20140;-76
2023/05/28 06:39:01;;;;;;;6.38;3.05;;;;;;;;;;5006625;28;20045;-79
2023/05/28 06:41:26;;;;;;;7.68;2.63;;;;;;;;;;5015890;28;20136;-78
2023/05/28 06:43:51;;;;;;;2.72;1.65;;;;;;;;;;5034189;28;20033;-76
2023/05/28 06:46:17;;;;;;;5.97;2.30;;;;;;;;;;5005114;28;20045;-79
2023/05/28 06:48:42;;;;;;;5.60;2.22;;;;;;;;;;5027455;28;20037;-76
2023/05/28 06:51:07;;;;;;;4.57;2.63;;;;;;;;;;5029089;28;20056;-76
2023/05/28 06:53:33;;;;;;;3.15;2.00;;;;;;;;;;5023893;28;20065;-77
2023/05/28 06:55:58;;;;;;;3.88;2.42;;;;;;;;;;5029438;28;20048;-79
2023/05/28 06:58:24;;;;;;;4.63;2.50;;;;;;;;;;5022280;28;20045;-78
2023/05/28 07:00:49;;;;;;;5.70;2.80;;;;;;;;;;5022150;28;20151;-79
2023/05/28 07:03:14;;;;;;;4.40;2.58;;;;;;;;;;5032200;28;20128;-78
2023/05/28 07:05:40;;;;;;;5.72;2.47;;;;;;;;;;5032571;28;20048;-78
2023/05/28 07:08:06;;;;;;;5.78;2.92;;;;;;;;;;5012372;28;20033;-77
2023/05/28 07:10:31;;;;;;;5.47;2.85;;;;;;;;;;5032422;28;20091;-79
2023/05/28 07:12:56;;;;;;;4.50;2.70;;;;;;;;;;5018248;28;20049;-78
2023/05/28 07:15:22;;;;;;;4.53;2.75;;;;;;;;;;5022405;28;20029;-79
2023/05/28 07:17:47;;;;;;;7.13;3.63;;;;;;;;;;5024434;28;20476;-80
2023/05/28 07:20:13;;;;;;;5.05;2.28;;;;;;;;;;5028339;28;20037;-76
2023/05/28 07:22:39;;;;;;;6.93;2.83;;;;;;;;;;5019936;28;20045;-79
2023/05/28 07:25:05;;;;;;;4.20;2.45;;;;;;;;;;5032803;28;20032;-77
2023/05/28 07:27:30;;;;;;;5.50;2.45;;;;;;;;;;5034970;28;20037;-76
2023/05/28 07:29:56;;;;;;;6.85;2.28;;;;;;;;;;5021380;28;20031;-78
2023/05/28 07:32:21;;;;;;;6.22;2.60;;;;;;;;;;5032594;28;20041;-77
2023/05/28 07:34:47;;;;;;;7.47;2.92;;;;;;;;;;5026552;28;20045;-79
2023/05/28 07:37:12;;;;;;;5.50;2.78;;;;;;;;;;5021925;28;20107;-79
2023/05/28 07:39:37;;;;;;;4.15;2.20;;;;;;;;;;5033551;28;20041;-77
2023/05/28 07:42:03;;;;;;;4.28;2.33;;;;;;;;;;5019924;28;20094;-78
2023/05/28 07:44:28;;;;;;;7.68;2.83;;;;;;;;;;5024295;28;20032;-78
2023/05/28 07:46:54;;;;;;;6.35;2.70;;;;;;;;;;5030248;28;20045;-78
2023/05/28 07:49:21;;;;;;;5.90;3.30;;;;;;;;;;5033706;28;20107;-77
2023/05/28 07:51:46;;;;;;;7.47;2.80;;;;;;;;;;5013452;28;20039;-80
2023/05/28 07:54:12;;;;;;;4.95;2.50;;;;;;;;;;5021394;28;20037;-77
2023/05/28 07:56:38;;;;;;;4.35;3.15;;;;;;;;;;5021607;28;20045;-80
2023/05/28 07:59:04;;;;;;;3.78;2.30;;;;;;;;;;5018677;28;21436;-80
2023/05/28 08:01:30;;;;;;;5.70;2.85;;;;;;;;;;5028247;28;20045;-80
2023/05/28 08:03:55;;;;;;;5.65;2.80;;;;;;;;;;5020301;28;20521;-78
2023/05/28 08:06:21;;;;;;;7.07;2.95;;;;;;;;;;5014115;28;20466;-75
2023/05/28 08:08:46;;;;;;;5.45;3.08;;;;;;;;;;5022572;28;20033;-80
2023/05/28 08:11:13;;;;;;;4.70;1.98;;;;;;;;;;5010946;28;20045;-77
2023/05/28 08:13:39;;;;;;;5.75;3.17;;;;;;;;;;5023554;28;20041;-78
2023/05/28 08:16:05;;;;;;;4.40;3.22;;;;;;;;;;5017718;28;20127;-81
2023/05/28 08:18:30;;;;;;;6.20;3.60;;;;;;;;;;5017456;28;20036;-80
2023/05/28 08:20:56;;;;;;;5.82;3.13;;;;;;;;;;5020542;28;20041;-80
2023/05/28 08:23:21;;;;;;;7.00;2.80;;;;;;;;;;5022863;28;20034;-77
2023/05/28 08:25:46;;;;;;;6.15;3.50;;;;;;;;;;5000211;28;20046;-77
2023/05/28 08:28:13;;;;;;;5.60;2.80;;;;;;;;;;5019799;28;20052;-77
2023/05/28 08:30:39;;;;;;;6.82;2.85;;;;;;;;;;5007416;28;20041;-79
2023/05/28 08:33:04;;;;;;;4.47;1.90;;;;;;;;;;5026119;28;20098;-78
2023/05/28 08:35:29;;;;;;;4.75;2.20;;;;;;;;;;5017949;28;20075;-78
2023/05/28 08:37:55;;;;;;;2.08;1.70;;;;;;;;;;5028245;28;20041;-77
2023/05/28 08:40:20;;;;;;;3.72;1.80;;;;;;;;;;5029694;28;20034;-77
2023/05/28 08:42:45;;;;;;;3.35;2.35;;;;;;;;;;5034387;28;20051;-77
2023/05/28 08:45:12;;;;;;;3.05;1.77;;;;;;;;;;5020229;28;20457;-75
2023/05/28 08:47:37;;;;;;;4.63;2.38;;;;;;;;;;5013663;28;20059;-78
2023/05/28 08:50:05;;;;;;;4.93;2.40;;;;;;;;;;5031560;28;20037;-79
2023/05/28 08:52:32;;;;;;;3.17;2.05;;;;;;;;;;5025714;28;20085;-77
2023/05/28 08:54:58;;;;;;;10.48;2.30;;;;;;;;;;5024620;28;20174;-78
2023/05/28 08:57:25;;;;;;;8.07;2.50;;;;;;;;;;5034137;28;20166;-79
2023/05/28 08:59:50;;;;;;;2.78;2.00;;;;;;;;;;5026020;28;20038;-75
2023/05/28 09:02:16;;;;;;;3.08;2.08;;;;;;;;;;5007022;28;20052;-77
2023/05/28 09:04:46;;;;;;;4.13;2.20;;;;;;;;;;5021825;28;20096;-77
2023/05/28 09:07:12;;;;;;;3.35;2.00;;;;;;;;;;5011196;28;20049;-78
2023/05/28 09:09:37;;;;;;;3.83;2.08;;;;;;;;;;5023200;28;20037;-78
2023/05/28 09:12:07;;;;;;;4.30;1.98;;;;;;;;;;5031793;28;20029;-76
2023/05/28 09:14:41;;;;;;;3.35;1.83;;;;;;;;;;5015344;28;20132;-76
2023/05/28 09:17:08;;;;;;;3.95;2.05;;;;;;;;;;5021431;28;20049;-76
2023/05/28 09:19:35;;;;;;;3.97;1.90;;;;;;;;;;5022451;28;20051;-77
2023/05/28 09:22:02;;;;;;;5.72;2.22;;;;;;;;;;5042065;28;20044;-77
2023/05/28 09:24:29;;;;;;;4.20;2.28;;;;;;;;;;5021173;28;20090;-79
2023/05/28 09:26:57;;;;;;;3.60;2.00;;;;;;;;;;5030805;28;20061;-79
2023/05/28 09:29:24;;;;;;;4.53;2.00;;;;;;;;;;5041605;28;20486;-79
2023/05/28 09:31:57;;;;;;;4.88;2.60;;;;;;;;;;5022520;28;20105;-78
2023/05/28 09:34:31;;;;;;;4.60;2.47;;;;;;;;;;5010513;28;20042;-77
2023/05/28 09:37:04;;;;;;;4.45;2.03;;;;;;;;;;5032706;28;20037;-78
2023/05/28 09:39:30;;;;;;;3.35;2.00;;;;;;;;;;5035538;28;20044;-76
2023/05/28 09:42:03;;;;;;;4.88;2.20;;;;;;;;;;5042563;28;20591;-78
2023/05/28 09:44:33;;;;;;;3.40;2.00;;;;;;;;;;5026469;28;20071;-75
2023/05/28 09:46:58;;;;;;;3.03;2.00;;;;;;;;;;5030799;28;20585;-77
2023/05/28 09:49:27;;;;;;;5.18;2.33;;;;;;;;;;5032919;28;20127;-77
2023/05/28 09:51:56;;;;;;;5.40;2.17;;;;;;;;;;5017216;28;20104;-78
2023/05/28 09:54:26;;;;;;;3.35;2.13;;;;;;;;;;5030595;28;20045;-76
2023/05/28 09:56:53;;;;;;;3.95;2.20;;;;;;;;;;5013867;28;20041;-78
2023/05/28 09:59:23;;;;;;;4.20;2.58;;;;;;;;;;5014976;28;20049;-76
2023/05/28 10:02:18;;;;;;;3.78;2.33;;;;;;;;;;5026880;28;20060;-78
2023/05/28 10:04:46;;;;;;;4.55;2.35;;;;;;;;;;5022859;28;20494;-76
2023/05/28 10:07:12;;;;;;;5.13;2.40;;;;;;;;;;5026161;28;20028;-78
2023/05/28 10:09:40;;;;;;;4.57;2.58;;;;;;;;;;5023104;28;20048;-77
2023/05/28 10:12:12;;;;;;;4.15;2.20;;;;;;;;;;5028284;28;20087;-75
2023/05/28 10:14:39;;;;;;;4.30;2.20;;;;;;;;;;5021111;28;20127;-78
2023/05/28 10:17:09;;;;;;;6.82;2.50;;;;;;;;;;5000474;28;20412;-77
2023/05/28 10:19:35;;;;;;;3.70;2.53;;;;;;;;;;4998292;28;20041;-77
2023/05/28 10:22:01;;;;;;;3.50;2.55;;;;;;;;;;5016643;28;20046;-77
2023/05/28 10:24:27;;;;;;;2.45;2.05;;;;;;;;;;5035273;28;20036;-77
2023/05/28 10:26:55;;;;;;;4.75;2.65;;;;;;;;;;5032325;28;20106;-79
2023/05/28 10:29:20;;;;;;;3.72;2.60;;;;;;;;;;5009289;28;20033;-79
2023/05/28 10:31:57;;;;;;;3.63;2.33;;;;;;;;;;5026138;28;20033;-77
2023/05/28 10:34:34;;;;;;;5.97;2.45;;;;;;;;;;5016190;28;20145;-76
2023/05/28 10:37:04;;;;;;;7.20;2.25;;;;;;;;;;5020581;28;20045;-78
2023/05/28 10:39:45;;;;;;;3.22;2.20;;;;;;;;;;5021304;28;20093;-77
2023/05/28 10:42:16;;;;;;;3.92;2.28;;;;;;;;;;4990302;28;20061;-76
2023/05/28 10:44:59;;;;;;;4.18;2.20;;;;;;;;;;5024985;28;20048;-77
2023/05/28 10:47:35;;;;;;;4.45;1.90;;;;;;;;;;5032250;28;20045;-77
2023/05/28 10:50:09;;;;;;;3.97;2.40;;;;;;;;;;5032809;28;20664;-79
2023/05/28 10:52:35;;;;;;;4.68;2.33;;;;;;;;;;4988592;28;20142;-78
2023/05/28 10:55:06;;;;;;;3.78;2.45;;;;;;;;;;5014047;28;20118;-76
2023/05/28 10:57:47;;;;;;;3.63;2.35;;;;;;;;;;5031947;28;20058;-76
2023/05/28 11:00:23;;;;;;;4.75;2.67;;;;;;;;;;5020813;28;20120;-77
2023/05/28 11:02:52;;;;;;;3.22;2.17;;;;;;;;;;5000125;28;20046;-77
2023/05/28 11:05:24;;;;;;;4.13;2.50;;;;;;;;;;5026028;28;20140;-79
2023/05/28 11:07:52;;;;;;;4.95;2.40;;;;;;;;;;5007257;28;20046;-78
2023/05/28 11:10:18;;;;;;;4.78;2.67;;;;;;;;;;5026952;28;20041;-77
2023/05/28 11:12:47;;;;;;;4.35;2.30;;;;;;;;;;4993138;28;20074;-79
2023/05/28 11:15:13;;;;;;;2.75;2.45;;;;;;;;;;5021548;28;20112;-76
2023/05/28 11:17:46;;;;;;;3.40;2.00;;;;;;;;;;5007197;28;20051;-76
2023/05/28 11:20:18;;;;;;;3.25;2.30;;;;;;;;;;5021553;28;20052;-77
2023/05/28 11:22:44;;;;;;;3.58;2.20;;;;;;;;;;5022293;28;20041;-76
2023/05/28 11:25:11;;;;;;;2.53;1.90;;;;;;;;;;5017907;28;20075;-75
2023/05/28 11:27:39;;;;;;;3.90;2.30;;;;;;;;;;5007548;28;20056;-78
2023/05/28 11:30:16;;;;;;;4.55;2.75;;;;;;;;;;5005992;28;20044;-76
2023/05/28 11:32:43;;;;;;;3.80;2.42;;;;;;;;;;5021733;28;20154;-78
2023/05/28 11:35:11;;;;;;;3.33;2.42;;;;;;;;;;5004128;28;20041;-78
2023/05/28 11:37:39;;;;;;;3.10;2.33;;;;;;;;;;5016229;28;20047;-76
2023/05/28 11:40:09;;;;;;;3.22;2.13;;;;;;;;;;5018467;28;20033;-77
2023/05/28 11:42:35;;;;;;;3.42;2.33;;;;;;;;;;5016247;28;20037;-76
2023/05/28 11:45:00;;;;;;;4.07;2.40;;;;;;;;;;5018735;28;20132;-78
2023/05/28 11:47:26;;;;;;;4.43;2.20;;;;;;;;;;5029458;28;20060;-78
2023/05/28 11:49:52;;;;;;;3.20;2.40;;;;;;;;;;5024790;28;20062;-75
2023/05/28 11:52:23;;;;;;;3.13;2.28;;;;;;;;;;5034765;28;20053;-76
2023/05/28 11:54:54;;;;;;;4.28;2.05;;;;;;;;;;5020449;28;20128;-78
2023/05/28 11:57:24;;;;;;;3.80;2.60;;;;;;;;;;5020685;28;20037;-77
2023/05/28 12:00:11;;;;;;;2.80;2.28;;;;;;;;;;5000056;28;20046;-76
2023/05/28 12:02:51;;;;;;;2.95;2.05;;;;;;;;;;5013594;28;20041;-78
2023/05/28 12:05:18;;;;;;;4.43;2.42;;;;;;;;;;4994572;28;20050;-76
2023/05/28 12:07:48;;;;;;;4.32;2.70;;;;;;;;;;5010061;28;20046;-76
2023/05/28 12:10:16;;;;;;;4.22;2.75;;;;;;;;;;5006696;28;20052;-76
2023/05/28 12:12:44;;;;;;;3.85;2.60;;;;;;;;;;5037775;28;20045;-76
2023/05/28 12:15:10;;;;;;;3.20;2.58;;;;;;;;;;5023962;28;20030;-78
2023/05/28 12:17:37;;;;;;;3.22;2.25;;;;;;;;;;5018085;28;20056;-77
2023/05/28 12:20:25;;;;;;;3.88;2.78;;;;;;;;;;5025295;28;20048;-77
2023/05/28 12:23:03;;;;;;;4.28;2.58;;;;;;;;;;5023042;28;20046;-76
2023/05/28 12:25:28;;;;;;;5.18;2.63;;;;;;;;;;5046717;28;20126;-78
2023/05/28 12:27:54;;;;;;;3.72;2.38;;;;;;;;;;5024470;28;20604;-77
2023/05/28 12:30:19;;;;;;;4.43;2.05;;;;;;;;;;5034974;28;20049;-75
2023/05/28 12:32:44;;;;;;;3.55;2.13;;;;;;;;;;5030579;28;20049;-78
2023/05/28 12:35:10;;;;;;;4.65;2.58;;;;;;;;;;5027153;28;20052;-78
2023/05/28 12:37:35;;;;;;;4.90;2.45;;;;;;;;;;5041714;28;20058;-78
2023/05/28 12:40:00;;;;;;;5.20;2.35;;;;;;;;;;5030069;28;20044;-78
2023/05/28 12:42:26;;;;;;;4.35;2.10;;;;;;;;;;5026581;28;20029;-74
2023/05/28 12:44:51;;;;;;;4.90;2.70;;;;;;;;;;5021582;28;20617;-76
2023/05/28 12:47:17;;;;;;;4.13;2.35;;;;;;;;;;5032190;28;20120;-77
2023/05/28 12:49:42;;;;;;;4.10;2.40;;;;;;;;;;5024769;28;20416;-76
2023/05/28 12:52:08;;;;;;;3.15;2.15;;;;;;;;;;5016550;28;20095;-77
2023/05/28 12:54:34;;;;;;;2.90;2.20;;;;;;;;;;5035976;28;20646;-75
2023/05/28 12:57:00;;;;;;;3.83;2.25;;;;;;;;;;5038726;28;20033;-76
2023/05/28 12:59:27;;;;;;;3.25;2.55;;;;;;;;;;5027338;28;20068;-78
2023/05/28 13:01:54;;;;;;;4.88;2.63;;;;;;;;;;5018519;28;20524;-77
2023/05/28 13:04:20;;;;;;;5.93;2.58;;;;;;;;;;5028114;28;20055;-76
2023/05/28 13:06:46;;;;;;;3.45;2.42;;;;;;;;;;5020177;28;20111;-76
2023/05/28 13:09:12;;;;;;;5.43;2.45;;;;;;;;;;5031704;28;20037;-78
2023/05/28 13:11:39;;;;;;;3.70;2.47;;;;;;;;;;5037590;28;20166;-78
2023/05/28 13:14:05;;;;;;;3.47;2.30;;;;;;;;;;5026341;28;20092;-76
2023/05/28 13:16:30;;;;;;;4.57;2.40;;;;;;;;;;5021767;28;20061;-78
2023/05/28 13:18:55;;;;;;;4.22;2.30;;;;;;;;;;5045829;28;20119;-77
2023/05/28 13:21:21;;;;;;;3.15;2.10;;;;;;;;;;5033974;28;20181;-77
2023/05/28 13:23:47;;;;;;;3.75;2.35;;;;;;;;;;5018787;28;20041;-78
2023/05/28 13:26:13;;;;;;;2.63;2.28;;;;;;;;;;5018934;28;20554;-75
2023/05/28 13:28:38;;;;;;;4.85;2.55;;;;;;;;;;5032894;28;20056;-76
2023/05/28 13:31:04;;;;;;;3.00;2.20;;;;;;;;;;5014830;28;20037;-77
2023/05/28 13:33:29;;;;;;;4.70;2.30;;;;;;;;;;5041955;28;20124;-76
2023/05/28 13:35:55;;;;;;;3.42;2.20;;;;;;;;;;5042407;28;20041;-78
2023/05/28 13:38:20;;;;;;;3.10;2.22;;;;;;;;;;5024631;28;20037;-74
2023/05/28 13:40:46;;;;;;;3.20;2.22;;;;;;;;;;5012499;28;20040;-78
2023/05/28 13:43:13;;;;;;;2.75;1.95;;;;;;;;;;5022020;28;20047;-77
2023/05/28 13:45:40;;;;;;;3.10;1.95;;;;;;;;;;5015357;28;20040;-77
2023/05/28 13:48:06;;;;;;;3.55;2.55;;;;;;;;;;5017680;28;20539;-75
2023/05/28 13:50:32;;;;;;;3.08;2.03;;;;;;;;;;5035925;28;20127;-77
2023/05/28 13:52:58;;;;;;;3.92;2.33;;;;;;;;;;5039035;28;20061;-76
2023/05/28 13:55:23;;;;;;;3.75;2.33;;;;;;;;;;5041616;28;20315;-77
2023/05/28 13:57:48;;;;;;;2.38;1.75;;;;;;;;;;5025763;28;20045;-77
2023/05/28 14:00:15;;;;;;;3.25;2.38;;;;;;;;;;5021189;28;20563;-77
2023/05/28 14:02:44;;;;;;;2.90;2.50;;;;;;;;;;5029742;28;20069;-76
2023/05/28 14:05:10;;;;;;;4.03;2.20;;;;;;;;;;5023622;28;20158;-77
2023/05/28 14:07:35;;;;;;;3.83;2.38;;;;;;;;;;5038394;28;20400;-76
2023/05/28 14:10:02;;;;;;;4.32;2.15;;;;;;;;;;5030971;28;20032;-77
2023/05/28 14:12:27;;;;;;;4.43;2.28;;;;;;;;;;5005749;28;20041;-77
2023/05/28 14:14:53;;;;;;;5.07;2.47;;;;;;;;;;5019637;28;20048;-77
2023/05/28 14:17:18;;;;;;;2.85;2.15;;;;;;;;;;5024697;28;21404;-76
2023/05/28 14:19:43;;;;;;;3.08;2.20;;;;;;;;;;5022588;28;20037;-77
2023/05/28 14:22:09;;;;;;;3.05;2.22;;;;;;;;;;5028470;28;20124;-77
2023/05/28 14:24:35;;;;;;;3.63;2.03;;;;;;;;;;5037132;28;20040;-77
2023/05/28 14:27:01;;;;;;;3.30;2.08;;;;;;;;;;5019795;28;20041;-76
2023/05/28 14:29:27;;;;;;;2.88;2.10;;;;;;;;;;5037736;28;20036;-75
2023/05/28 14:31:52;;;;;;;2.05;1.80;;;;;;;;;;5031076;28;20892;-77
2023/05/28 14:34:17;;;;;;;3.42;2.22;;;;;;;;;;5017385;28;20049;-76
2023/05/28 14:36:43;;;;;;;4.43;2.58;;;;;;;;;;5044971;28;20036;-76
2023/05/28 14:39:08;;;;;;;3.25;2.40;;;;;;;;;;5030500;28;20406;-77
2023/05/28 14:41:34;;;;;;;3.80;2.40;;;;;;;;;;5019404;28;20047;-76